Skip Navigation Links Skip Navigation Links

Current Weather

Boscombe Down, United Kingdom

For information only: do not use for flight planning or navigation.
Latest weather
Observation time Wednesday, November 25, 2020 12:50 AM GMT
Local time Wednesday, November 25, 2020 1:55 AM GMT
Flight conditions Instrument Meteorological Conditions
Winds
Wind direction South (170°)
Wind speed 13 mph
Visibility 6.2 mi.
Sky condition
Ceiling 600 ft. broken clouds
Cloud layer broken clouds 600 ft.
Cloud layer broken clouds 1,400 ft.
Temperature 52°F
Dewpoint 50°F
Altimeter 29.80 in.Hg
Derived measurements
Relative humidity 94%
Density altitude -159 ft.
Remarks
Fully automated report.
METAR EGDM 250050Z AUTO 17011KT 9999 BKN006/// BKN014/// 11/10 Q1009

Settings

Location code

InnerDrive.Weather 4.0.6770.0 Release CLR 4.0.30319.42000
Copyright ©2018 Inner Drive Technology. All rights reserved. Portions Copyright ©1986-2018 David Braverman.

Find weather

Site navigation


Skip Navigation Links

Place info

Page info

PayPal - The safer, easier way to pay online!

Return home.

Copyright ©2020 Inner Drive Technology. Purveyors of fine, hand-crafted computer software. Page printed 2020-11-25T01:55:26 UTC.